Time;durP1;ratioP1;P1;durP2;ratioP2;P2;SDS_P1;SDS_P2;PMS_P1;PMS_P2;Temp;Humidity;BMP_temperature;BMP_pressure;BME280_temperature;BME280_humidity;BME280_pressure;Samples;Min_cycle;Max_cycle;Signal;HPM_P1;HPM_P2
2023/08/18 11:31:26;;;;;;;2.53;2.33;;;;;;;;;;6206740;22;1693973;-86
2023/08/18 11:33:51;;;;;;;2.55;2.35;;;;;;;;;;6339174;22;20321;-86
2023/08/18 11:36:17;;;;;;;3.42;2.35;;;;;;;;;;6340582;22;20003;-86
2023/08/18 11:38:42;;;;;;;2.38;2.17;;;;;;;;;;6341107;22;20003;-85
2023/08/18 11:41:08;;;;;;;2.25;2.10;;;;;;;;;;6340737;22;20006;-86
2023/08/18 11:43:34;;;;;;;2.30;2.20;;;;;;;;;;6341347;22;20010;-85
2023/08/18 11:46:00;;;;;;;3.17;2.17;;;;;;;;;;6341158;22;19998;-86
2023/08/18 11:48:28;;;;;;;2.53;2.33;;;;;;;;;;6341048;22;20007;-83
2023/08/18 11:50:56;;;;;;;2.28;2.13;;;;;;;;;;6340871;22;20421;-87
2023/08/18 11:53:25;;;;;;;3.00;2.28;;;;;;;;;;6340771;22;20002;-86
2023/08/18 11:55:51;;;;;;;2.45;2.25;;;;;;;;;;6340610;22;20299;-87
2023/08/18 11:58:17;;;;;;;2.40;2.20;;;;;;;;;;6340977;22;20010;-86
2023/08/18 12:00:47;;;;;;;2.63;1.92;;;;;;;;;;6340547;22;20007;-87
2023/08/18 12:03:24;;;;;;;2.90;2.60;;;;;;;;;;6340675;22;20002;-87
2023/08/18 12:05:51;;;;;;;4.22;2.00;;;;;;;;;;6340899;22;20025;-86
2023/08/18 12:08:16;;;;;;;2.55;2.35;;;;;;;;;;6340347;22;20459;-86
2023/08/18 12:10:44;;;;;;;2.85;2.28;;;;;;;;;;6340607;22;20002;-89
2023/08/18 12:13:10;;;;;;;2.95;2.50;;;;;;;;;;6340792;22;20052;-88
2023/08/18 12:15:36;;;;;;;2.80;2.60;;;;;;;;;;6339295;22;20003;-87
2023/08/18 12:18:04;;;;;;;2.80;2.60;;;;;;;;;;6339872;22;20322;-87
2023/08/18 12:20:31;;;;;;;3.03;2.50;;;;;;;;;;6340079;22;20007;-86
2023/08/18 12:22:57;;;;;;;2.60;2.40;;;;;;;;;;6340116;22;20417;-89
2023/08/18 12:25:22;;;;;;;2.83;2.58;;;;;;;;;;6338544;22;20010;-89
2023/08/18 12:27:48;;;;;;;3.10;2.90;;;;;;;;;;6339968;22;19999;-88
2023/08/18 12:30:15;;;;;;;2.63;2.40;;;;;;;;;;6338441;22;20005;-89
2023/08/18 12:32:46;;;;;;;3.42;3.00;;;;;;;;;;6364198;22;20010;-88
2023/08/18 12:35:12;;;;;;;2.25;2.05;;;;;;;;;;6371752;22;20010;-89
2023/08/18 12:37:37;;;;;;;2.88;2.67;;;;;;;;;;6371660;22;20010;-89
2023/08/18 12:40:05;;;;;;;2.83;2.63;;;;;;;;;;6343673;22;20009;-90
2023/08/18 12:42:33;;;;;;;3.20;3.00;;;;;;;;;;6343672;22;20376;-88
2023/08/18 12:44:59;;;;;;;3.15;2.95;;;;;;;;;;6371800;22;20002;-89
2023/08/18 12:47:24;;;;;;;3.65;3.17;;;;;;;;;;6343951;22;20417;-89
2023/08/18 12:49:50;;;;;;;3.05;2.85;;;;;;;;;;6371446;22;20002;-91
2023/08/18 12:52:16;;;;;;;2.95;2.60;;;;;;;;;;6371756;22;20003;-89
2023/08/18 12:54:41;;;;;;;3.50;3.20;;;;;;;;;;6371537;22;20044;-90
2023/08/18 12:57:07;;;;;;;3.47;3.10;;;;;;;;;;6371503;22;19998;-88
2023/08/18 12:59:33;;;;;;;3.38;3.05;;;;;;;;;;6372870;22;20055;-88
2023/08/18 13:01:58;;;;;;;3.30;3.10;;;;;;;;;;6344004;22;20333;-88
2023/08/18 13:04:24;;;;;;;3.67;3.10;;;;;;;;;;6371609;22;20009;-87
2023/08/18 13:06:50;;;;;;;3.90;3.05;;;;;;;;;;6371469;22;20027;-88
2023/08/18 13:09:15;;;;;;;3.83;3.53;;;;;;;;;;6371063;22;20013;-86
2023/08/18 13:11:41;;;;;;;3.40;3.10;;;;;;;;;;6371570;22;20306;-87
2023/08/18 13:14:06;;;;;;;3.53;3.20;;;;;;;;;;6371486;22;20471;-87
2023/08/18 13:16:34;;;;;;;3.05;2.80;;;;;;;;;;6372248;22;20006;-87
2023/08/18 13:18:59;;;;;;;4.25;3.28;;;;;;;;;;6371525;22;20014;-87
2023/08/18 13:21:27;;;;;;;4.47;3.30;;;;;;;;;;6371253;22;20362;-87
2023/08/18 13:23:54;;;;;;;3.08;2.88;;;;;;;;;;6343598;22;20081;-87
2023/08/18 13:26:19;;;;;;;3.67;3.40;;;;;;;;;;6371563;22;20002;-88
2023/08/18 13:28:45;;;;;;;3.63;3.13;;;;;;;;;;6371145;22;20013;-87
2023/08/18 13:31:10;;;;;;;3.90;3.60;;;;;;;;;;6371357;22;20336;-87
2023/08/18 13:33:36;;;;;;;4.10;3.50;;;;;;;;;;6343452;22;20055;-87
2023/08/18 13:36:01;;;;;;;4.32;3.92;;;;;;;;;;6371259;22;20306;-87
2023/08/18 13:38:26;;;;;;;3.50;3.20;;;;;;;;;;6371137;22;20536;-88
2023/08/18 13:40:52;;;;;;;3.42;3.13;;;;;;;;;;6371269;22;20006;-87
2023/08/18 13:43:18;;;;;;;4.22;3.58;;;;;;;;;;6343443;22;20018;-88
2023/08/18 13:45:44;;;;;;;4.43;3.20;;;;;;;;;;6343422;22;20011;-88
2023/08/18 13:48:09;;;;;;;3.50;3.20;;;;;;;;;;6370962;22;20099;-87
2023/08/18 13:50:35;;;;;;;3.72;3.40;;;;;;;;;;6343312;22;20002;-86
2023/08/18 13:53:00;;;;;;;3.83;3.45;;;;;;;;;;6371232;22;20014;-87
2023/08/18 13:55:26;;;;;;;4.00;3.60;;;;;;;;;;6371563;22;20034;-87
2023/08/18 13:57:51;;;;;;;4.18;3.88;;;;;;;;;;6370749;22;20325;-88
2023/08/18 14:00:17;;;;;;;4.10;3.70;;;;;;;;;;6371207;22;19994;-87
2023/08/18 14:02:43;;;;;;;4.65;4.25;;;;;;;;;;6343187;22;20022;-87
2023/08/18 14:05:09;;;;;;;4.18;3.78;;;;;;;;;;6370853;22;20029;-87
2023/08/18 14:07:36;;;;;;;4.25;3.85;;;;;;;;;;6370887;22;20002;-86
2023/08/18 14:10:03;;;;;;;4.80;4.45;;;;;;;;;;6370948;22;20034;-88
2023/08/18 14:12:28;;;;;;;6.05;5.40;;;;;;;;;;6370903;22;20005;-87
2023/08/18 14:14:54;;;;;;;5.45;4.95;;;;;;;;;;6371213;22;20006;-86
2023/08/18 14:17:44;;;;;;;5.80;5.22;;;;;;;;;;6370912;22;20048;-87
2023/08/18 14:20:12;;;;;;;5.68;5.20;;;;;;;;;;6370848;22;20329;-88
2023/08/18 14:22:42;;;;;;;7.63;5.05;;;;;;;;;;6371117;22;20026;-87
2023/08/18 14:25:09;;;;;;;5.05;4.70;;;;;;;;;;6371173;22;20020;-88
2023/08/18 14:27:34;;;;;;;5.53;5.10;;;;;;;;;;6370858;22;20048;-87
2023/08/18 14:30:00;;;;;;;4.97;4.57;;;;;;;;;;6343188;22;20002;-87
2023/08/18 14:32:26;;;;;;;4.90;4.50;;;;;;;;;;6370965;22;20010;-87
2023/08/18 14:34:55;;;;;;;5.10;4.70;;;;;;;;;;6371087;22;20002;-86
2023/08/18 14:37:25;;;;;;;5.20;4.35;;;;;;;;;;6370797;22;20002;-88
2023/08/18 14:39:51;;;;;;;5.30;4.90;;;;;;;;;;6370871;22;19998;-87
2023/08/18 14:42:17;;;;;;;5.65;5.15;;;;;;;;;;6370671;22;20006;-87
2023/08/18 14:44:43;;;;;;;6.55;5.70;;;;;;;;;;6370735;22;20005;-86
2023/08/18 14:47:09;;;;;;;6.47;5.88;;;;;;;;;;6370995;22;19995;-87
2023/08/18 14:49:34;;;;;;;5.43;5.03;;;;;;;;;;6370548;22;20009;-87
2023/08/18 14:52:04;;;;;;;5.40;5.00;;;;;;;;;;6342808;22;20007;-88
2023/08/18 14:54:32;;;;;;;5.70;5.15;;;;;;;;;;6371017;22;20077;-88
2023/08/18 14:56:59;;;;;;;4.97;4.68;;;;;;;;;;6370771;22;20009;-87
2023/08/18 14:59:28;;;;;;;5.38;4.93;;;;;;;;;;6370371;22;20010;-88
2023/08/18 15:01:54;;;;;;;6.15;5.57;;;;;;;;;;6342869;22;20002;-86
2023/08/18 15:04:20;;;;;;;5.70;5.30;;;;;;;;;;6370825;22;20126;-86
2023/08/18 15:06:45;;;;;;;5.63;5.18;;;;;;;;;;6370783;22;20099;-87
2023/08/18 15:09:11;;;;;;;6.25;5.65;;;;;;;;;;6342678;22;20002;-86
2023/08/18 15:11:37;;;;;;;6.47;5.88;;;;;;;;;;6372816;22;20003;-86
2023/08/18 15:14:03;;;;;;;6.50;6.00;;;;;;;;;;6372677;22;20006;-86
2023/08/18 15:16:29;;;;;;;6.28;5.78;;;;;;;;;;6372688;22;20002;-86
2023/08/18 15:18:54;;;;;;;6.07;5.57;;;;;;;;;;6372584;22;20004;-87
2023/08/18 15:21:20;;;;;;;6.22;5.63;;;;;;;;;;6372593;22;20006;-86
2023/08/18 15:23:45;;;;;;;6.53;6.03;;;;;;;;;;6373073;22;19998;-86
2023/08/18 15:26:11;;;;;;;6.25;5.75;;;;;;;;;;6344519;22;20002;-86
2023/08/18 15:28:36;;;;;;;6.00;5.50;;;;;;;;;;6344490;22;20006;-86
2023/08/18 15:31:02;;;;;;;7.00;5.80;;;;;;;;;;6372419;22;20328;-85
2023/08/18 15:33:28;;;;;;;6.65;6.05;;;;;;;;;;6372868;22;20002;-85
2023/08/18 15:35:53;;;;;;;6.45;5.90;;;;;;;;;;6372535;22;20006;-85
2023/08/18 15:38:19;;;;;;;6.70;6.10;;;;;;;;;;6344424;22;20044;-85
2023/08/18 15:40:44;;;;;;;7.20;6.57;;;;;;;;;;6372549;22;20003;-85
2023/08/18 15:43:10;;;;;;;7.35;6.10;;;;;;;;;;6344364;22;20002;-85
2023/08/18 15:45:46;;;;;;;7.30;6.70;;;;;;;;;;6372152;22;20413;-85
2023/08/18 15:48:15;;;;;;;7.75;6.97;;;;;;;;;;6372188;22;19998;-86
2023/08/18 15:50:41;;;;;;;6.47;5.88;;;;;;;;;;6372660;22;20002;-86
2023/08/18 15:53:07;;;;;;;7.40;6.13;;;;;;;;;;6344370;22;20324;-86
2023/08/18 15:55:46;;;;;;;7.10;6.10;;;;;;;;;;6372161;22;20073;-86
2023/08/18 15:58:13;;;;;;;6.38;5.82;;;;;;;;;;6372224;22;20018;-86
2023/08/18 16:00:39;;;;;;;7.03;6.43;;;;;;;;;;6372433;22;19998;-85
2023/08/18 16:03:05;;;;;;;6.43;5.88;;;;;;;;;;6344212;22;20022;-85
2023/08/18 16:05:31;;;;;;;7.28;6.60;;;;;;;;;;6344570;22;20013;-86
2023/08/18 16:07:56;;;;;;;8.07;7.30;;;;;;;;;;6372105;22;19994;-86
2023/08/18 16:10:22;;;;;;;7.28;6.68;;;;;;;;;;6371948;22;20009;-86
2023/08/18 16:12:47;;;;;;;6.90;6.28;;;;;;;;;;6372116;22;19998;-86
2023/08/18 16:15:13;;;;;;;7.15;6.45;;;;;;;;;;6372070;22;20428;-85
2023/08/18 16:17:38;;;;;;;6.68;6.18;;;;;;;;;;6372106;22;20048;-90
2023/08/18 16:20:04;;;;;;;7.07;6.38;;;;;;;;;;6371723;22;20059;-85
2023/08/18 16:22:30;;;;;;;7.80;6.75;;;;;;;;;;6343987;22;20006;-85
2023/08/18 16:24:56;;;;;;;7.15;6.50;;;;;;;;;;6344072;22;20488;-84
2023/08/18 16:27:21;;;;;;;7.40;6.72;;;;;;;;;;6372040;22;20002;-84
2023/08/18 16:29:47;;;;;;;7.72;6.97;;;;;;;;;;6371882;22;20006;-86
2023/08/18 16:32:15;;;;;;;7.45;6.88;;;;;;;;;;6343840;22;20416;-87
2023/08/18 16:34:40;;;;;;;7.82;7.07;;;;;;;;;;6344004;22;20338;-85
2023/08/18 16:37:05;;;;;;;7.30;6.68;;;;;;;;;;6371869;22;20012;-84
2023/08/18 16:39:31;;;;;;;7.38;6.78;;;;;;;;;;6371631;22;20034;-84
2023/08/18 16:41:57;;;;;;;7.70;6.97;;;;;;;;;;6372037;22;20030;-83
2023/08/18 16:44:23;;;;;;;7.38;6.78;;;;;;;;;;6371883;22;20102;-83
2023/08/18 16:46:48;;;;;;;9.63;8.65;;;;;;;;;;6372277;22;20411;-83
2023/08/18 16:49:14;;;;;;;8.93;7.90;;;;;;;;;;6371599;22;20010;-83
2023/08/18 16:51:39;;;;;;;9.00;7.53;;;;;;;;;;6371822;22;19998;-83
2023/08/18 16:54:05;;;;;;;6.78;6.18;;;;;;;;;;6371442;22;20473;-83
2023/08/18 16:56:31;;;;;;;8.23;7.53;;;;;;;;;;6373574;22;20002;-84
2023/08/18 16:58:56;;;;;;;6.47;5.88;;;;;;;;;;6374186;22;20013;-84
2023/08/18 17:01:22;;;;;;;7.13;6.45;;;;;;;;;;6371961;22;19999;-85
2023/08/18 17:03:48;;;;;;;9.85;8.93;;;;;;;;;;6371722;22;20071;-84
2023/08/18 17:06:14;;;;;;;7.20;6.50;;;;;;;;;;6371588;22;20033;-84
2023/08/18 17:08:39;;;;;;;6.90;6.35;;;;;;;;;;6371433;22;19999;-83
2023/08/18 17:11:05;;;;;;;8.75;6.50;;;;;;;;;;6371587;22;20069;-85
2023/08/18 17:13:30;;;;;;;7.28;6.57;;;;;;;;;;6372032;22;20025;-86
2023/08/18 17:15:56;;;;;;;7.07;6.43;;;;;;;;;;6371466;22;20477;-84
2023/08/18 17:18:23;;;;;;;6.60;6.00;;;;;;;;;;6371454;22;19995;-85
2023/08/18 17:20:51;;;;;;;7.78;6.38;;;;;;;;;;6371561;22;20417;-84
2023/08/18 17:23:17;;;;;;;6.93;6.22;;;;;;;;;;6371307;22;20081;-84
2023/08/18 17:25:46;;;;;;;7.30;6.70;;;;;;;;;;6371594;22;19994;-84
2023/08/18 17:28:11;;;;;;;8.82;7.70;;;;;;;;;;6343413;22;20007;-84
2023/08/18 17:30:37;;;;;;;8.00;7.28;;;;;;;;;;6371428;22;20002;-83
2023/08/18 17:33:02;;;;;;;7.35;6.75;;;;;;;;;;6342757;22;20010;-84
2023/08/18 17:35:28;;;;;;;7.20;6.60;;;;;;;;;;6371622;22;20409;-84
2023/08/18 17:37:56;;;;;;;8.80;7.90;;;;;;;;;;6372176;22;20362;-87
2023/08/18 17:40:22;;;;;;;8.60;7.85;;;;;;;;;;6371269;22;20079;-84
2023/08/18 17:42:50;;;;;;;8.90;8.05;;;;;;;;;;6371312;22;20002;-83
2023/08/18 17:45:16;;;;;;;8.65;7.72;;;;;;;;;;6371339;22;19999;-81
2023/08/18 17:47:41;;;;;;;8.00;7.35;;;;;;;;;;6371081;22;20059;-83
2023/08/18 17:50:07;;;;;;;10.63;7.70;;;;;;;;;;6371106;22;20067;-85
2023/08/18 17:52:32;;;;;;;8.27;7.45;;;;;;;;;;6371052;22;20008;-86
2023/08/18 17:54:58;;;;;;;8.20;7.50;;;;;;;;;;6343194;22;20045;-85
2023/08/18 17:57:23;;;;;;;7.28;6.68;;;;;;;;;;6370826;22;20006;-88
2023/08/18 17:59:49;;;;;;;8.07;7.38;;;;;;;;;;6370948;22;20002;-89
2023/08/18 18:02:18;;;;;;;8.90;8.10;;;;;;;;;;6343078;22;20089;-86
2023/08/18 18:04:49;;;;;;;10.18;8.10;;;;;;;;;;6370983;22;20002;-88
2023/08/18 18:07:16;;;;;;;11.25;10.15;;;;;;;;;;6342971;22;20006;-89
2023/08/18 18:09:41;;;;;;;10.10;9.20;;;;;;;;;;6342729;22;20014;-87
2023/08/18 18:12:07;;;;;;;8.90;8.00;;;;;;;;;;6370647;22;20461;-87
2023/08/18 18:14:33;;;;;;;9.27;8.38;;;;;;;;;;6371007;22;20010;-87
2023/08/18 18:16:58;;;;;;;10.25;9.30;;;;;;;;;;6371139;22;20009;-81
2023/08/18 18:19:24;;;;;;;10.55;9.40;;;;;;;;;;6370632;22;20380;-83
2023/08/18 18:21:50;;;;;;;10.93;9.82;;;;;;;;;;6370730;22;20002;-85
2023/08/18 18:24:15;;;;;;;10.25;9.15;;;;;;;;;;6371039;22;20006;-85
2023/08/18 18:26:40;;;;;;;9.85;7.95;;;;;;;;;;6370991;22;19998;-85
2023/08/18 18:29:09;;;;;;;9.48;8.68;;;;;;;;;;6370411;22;20009;-90
2023/08/18 18:31:35;;;;;;;10.63;9.73;;;;;;;;;;6342821;22;20018;-89
2023/08/18 18:34:02;;;;;;;11.80;10.60;;;;;;;;;;6342779;22;20002;-89
2023/08/18 18:36:28;;;;;;;13.50;12.20;;;;;;;;;;6370543;22;20321;-90
2023/08/18 18:38:53;;;;;;;12.02;10.93;;;;;;;;;;6342937;22;20037;-90
2023/08/18 18:41:18;;;;;;;12.73;11.52;;;;;;;;;;6370754;22;20002;-89
2023/08/18 18:43:44;;;;;;;11.82;10.63;;;;;;;;;;6370515;22;20003;-89
2023/08/18 18:46:10;;;;;;;11.27;10.20;;;;;;;;;;6342604;22;20016;-88
2023/08/18 18:48:36;;;;;;;11.15;10.15;;;;;;;;;;6342862;22;20033;-87
2023/08/18 20:56:42;;;;;;;10.98;9.98;;;;;;;;;;6301948;22;20016;-90
2023/08/18 20:59:07;;;;;;;10.15;9.15;;;;;;;;;;6312350;22;20382;-94
2023/08/18 21:01:33;;;;;;;11.15;9.18;;;;;;;;;;6309620;22;20003;-96
2023/08/18 21:03:58;;;;;;;10.43;9.43;;;;;;;;;;6285394;22;20035;-93
2023/08/18 21:06:25;;;;;;;10.02;9.13;;;;;;;;;;6276961;22;20030;-94
2023/08/18 21:08:51;;;;;;;10.95;9.95;;;;;;;;;;6277016;22;20008;-95
2023/08/18 21:11:17;;;;;;;9.82;8.93;;;;;;;;;;6277243;22;20418;-94
2023/08/18 21:13:45;;;;;;;11.63;9.00;;;;;;;;;;6277512;22;20419;-94
2023/08/18 21:16:14;;;;;;;9.77;8.88;;;;;;;;;;6279233;22;20023;-94
2023/08/18 21:18:42;;;;;;;9.52;8.65;;;;;;;;;;6276849;22;20042;-94
2023/08/18 21:21:08;;;;;;;9.50;8.60;;;;;;;;;;6277919;22;20000;-92
2023/08/18 21:23:37;;;;;;;9.70;8.80;;;;;;;;;;6277188;22;20029;-94
2023/08/18 21:26:09;;;;;;;9.73;8.88;;;;;;;;;;6277502;22;19996;-93
2023/08/18 21:28:35;;;;;;;10.10;9.15;;;;;;;;;;6277228;22;20085;-95
2023/08/18 21:31:03;;;;;;;10.70;9.57;;;;;;;;;;6277765;22;20081;-96
2023/08/18 21:33:29;;;;;;;9.45;8.60;;;;;;;;;;6278125;22;20375;-94
2023/08/18 21:35:54;;;;;;;9.60;8.80;;;;;;;;;;6278644;22;20015;-95
2023/08/18 21:38:20;;;;;;;9.68;8.77;;;;;;;;;;6278126;22;20445;-94
2023/08/18 21:40:53;;;;;;;9.48;8.65;;;;;;;;;;6279322;22;20049;-94
2023/08/18 21:43:19;;;;;;;10.13;9.23;;;;;;;;;;6278155;22;20015;-92
2023/08/18 21:45:45;;;;;;;9.55;8.65;;;;;;;;;;6278127;22;20074;-91
2023/08/18 21:48:11;;;;;;;10.57;9.50;;;;;;;;;;6277799;22;20094;-91
2023/08/18 21:50:38;;;;;;;10.32;9.35;;;;;;;;;;6277340;22;20004;-95
2023/08/18 21:53:03;;;;;;;10.60;9.60;;;;;;;;;;6277437;22;20423;-95
2023/08/18 21:55:29;;;;;;;10.10;9.20;;;;;;;;;;6278039;22;20025;-94
2023/08/18 21:57:54;;;;;;;9.85;8.95;;;;;;;;;;6278046;22;20015;-92
2023/08/18 22:00:21;;;;;;;10.60;9.68;;;;;;;;;;6276869;22;20000;-90
